Terminal Aerodrome Forecast
Issued by NWS Jacksonville, FL

Current Version | Previous Version | Text Only | Print | Product List | Glossary On
Versions: 1 2 3 4 5 6 7 8 9 10 11 12 13 14 15 16 17 18 19 20 21 22 23 24 25 26 27 28 29
000
FTUS42 KJAX 010023 RRA
TAFJAX
TAF
KJAX 010023Z 0100/0124 03015G23KT 2SM -DZ BR OVC006
      TEMPO 0102/0106 1SM -RA BR OVC004
     FM010600 03006KT 3SM -DZ BR OVC003
      TEMPO 0106/0110 1/2SM -RA FG OVC001
     FM011000 03005KT 2SM -DZ BR OVC002
      TEMPO 0110/0114 1/4SM -RA FG OVC001
     FM011400 06008G12KT 5SM -RA BR OVC004 PROB30 0115/0118 3SM RA
      BR OVC002
     FM011800 07005KT 4SM BR OVC007=

USA.gov is the U.S. government's official web portal to all federal, state and local government web resources and services.